createdAt,value
2019-05-13T00:01:54.020Z,76.94
2019-05-13T00:04:27.140Z,78.00
2019-05-13T00:07:00.569Z,78.71
2019-05-13T00:09:34.214Z,78.89
2019-05-13T00:12:07.648Z,79.65
2019-05-13T00:14:43.310Z,79.96
2019-05-13T00:17:16.215Z,80.47
2019-05-13T00:19:49.643Z,80.40
2019-05-13T00:22:23.539Z,80.79
2019-05-13T00:24:57.008Z,80.74
2019-05-13T00:27:30.442Z,80.83
2019-05-13T00:30:05.711Z,80.76
2019-05-13T00:32:39.077Z,81.69
2019-05-13T00:35:14.205Z,82.50
2019-05-13T00:37:47.691Z,82.26
2019-05-13T00:40:21.068Z,79.97
2019-05-13T00:42:54.636Z,76.98
2019-05-13T00:45:27.981Z,75.82
2019-05-13T00:48:01.415Z,75.06
2019-05-13T00:50:34.866Z,74.18
2019-05-13T00:53:08.418Z,74.18
2019-05-13T00:55:44.233Z,73.41
2019-05-13T00:58:17.018Z,72.31
2019-05-13T01:00:50.422Z,71.59
2019-05-13T01:03:25.335Z,71.15
2019-05-13T01:05:58.954Z,70.39
2019-05-13T01:08:33.817Z,69.94
2019-05-13T01:11:07.407Z,69.24
2019-05-13T01:13:43.202Z,69.35
2019-05-13T01:16:15.936Z,69.28
2019-05-13T01:18:49.360Z,69.92
2019-05-13T01:21:23.930Z,69.92
2019-05-13T01:23:57.460Z,70.37
2019-05-13T01:26:30.851Z,70.45
2019-05-13T01:29:04.374Z,70.17
2019-05-13T01:31:37.734Z,70.03
2019-05-13T01:34:11.183Z,69.76
2019-05-13T01:36:44.855Z,70.21
2019-05-13T01:39:18.301Z,70.14
2019-05-13T01:41:54.005Z,70.14
2019-05-13T01:44:26.831Z,70.37
2019-05-13T01:47:00.224Z,70.60
2019-05-13T01:49:33.901Z,70.77
2019-05-13T01:52:07.375Z,70.81
2019-05-13T01:54:40.774Z,70.74
2019-05-13T01:57:14.411Z,70.75
2019-05-13T01:59:48.229Z,70.84
2019-05-13T02:02:24.089Z,71.28
2019-05-13T02:04:56.765Z,71.44
2019-05-13T02:07:30.171Z,71.54
2019-05-13T02:10:05.509Z,72.27
2019-05-13T02:12:38.909Z,72.79
2019-05-13T02:15:14.493Z,73.10
2019-05-13T02:17:47.573Z,74.07
2019-05-13T02:20:20.975Z,74.00
2019-05-13T02:22:54.391Z,74.15
2019-05-13T02:25:27.787Z,74.62
2019-05-13T02:28:07.824Z,75.02
2019-05-13T02:30:36.308Z,75.00
2019-05-13T02:33:12.913Z,75.32
2019-05-13T02:35:44.845Z,74.22
2019-05-13T02:38:24.464Z,74.27
2019-05-13T02:40:53.849Z,73.57
2019-05-13T02:43:27.342Z,71.98
2019-05-13T02:46:04.182Z,71.25
2019-05-13T02:48:35.895Z,70.39
2019-05-13T02:51:12.182Z,69.99
2019-05-13T02:53:44.505Z,70.81
2019-05-13T02:56:17.934Z,71.14
2019-05-13T02:58:52.629Z,70.73
2019-05-13T03:01:26.225Z,70.81
2019-05-13T03:04:02.751Z,71.36
2019-05-13T03:06:34.830Z,71.09
2019-05-13T03:09:08.607Z,71.20
2019-05-13T03:11:42.545Z,71.21
2019-05-13T03:14:16.084Z,71.23
2019-05-13T03:17:03.670Z,71.83
2019-05-13T03:19:37.143Z,71.03
2019-05-13T03:22:13.520Z,71.10
2019-05-13T03:24:45.674Z,71.53
2019-05-13T03:27:20.526Z,70.16
2019-05-13T03:29:54.188Z,71.20
2019-05-13T03:32:35.703Z,72.08
2019-05-13T03:35:07.594Z,72.29
2019-05-13T03:37:38.722Z,71.92
2019-05-13T03:40:13.330Z,71.00
2019-05-13T03:42:48.978Z,71.05
2019-05-13T03:45:24.804Z,70.28
2019-05-13T03:48:03.981Z,68.98
2019-05-13T03:50:35.544Z,68.99
2019-05-13T03:53:12.123Z,69.08
2019-05-13T03:55:44.818Z,68.41
2019-05-13T03:58:18.723Z,68.43
2019-05-13T04:00:52.116Z,67.88
2019-05-13T04:03:25.616Z,68.48
2019-05-13T04:06:03.248Z,67.51
2019-05-13T04:08:34.351Z,67.65
2019-05-13T04:11:07.737Z,66.55
2019-05-13T04:13:42.974Z,67.13
2019-05-13T04:16:16.504Z,71.39
2019-05-13T04:18:53.375Z,72.85
2019-05-13T04:21:25.184Z,73.40
2019-05-13T04:23:58.746Z,74.07
2019-05-13T04:26:32.488Z,73.47
2019-05-13T04:29:05.935Z,73.60
2019-05-13T04:31:42.319Z,73.28
2019-05-13T04:34:14.685Z,71.50
2019-05-13T04:36:48.216Z,70.37
2019-05-13T04:39:40.100Z,71.23
2019-05-13T04:41:57.417Z,69.82
2019-05-13T04:44:32.341Z,64.68
2019-05-13T04:47:06.199Z,63.45
2019-05-13T04:49:42.614Z,59.71
2019-05-13T04:52:14.870Z,60.75
2019-05-13T04:54:48.360Z,59.16
2019-05-13T04:57:22.830Z,59.48
2019-05-13T04:59:56.431Z,60.50
2019-05-13T05:02:49.491Z,61.30
2019-05-13T05:05:45.276Z,58.93
2019-05-13T05:08:27.673Z,58.56
2019-05-13T05:11:16.198Z,57.25
2019-05-13T05:14:12.025Z,58.74
2019-05-13T05:16:48.661Z,57.55
2019-05-13T05:19:47.587Z,57.58
2019-05-13T05:22:51.273Z,57.18
2019-05-13T05:25:41.634Z,54.08
2019-05-13T05:28:33.634Z,56.55
2019-05-13T05:31:18.932Z,55.90
2019-05-13T05:34:32.357Z,57.83
2019-05-13T05:37:43.003Z,56.39
2019-05-13T05:40:30.456Z,57.89
2019-05-13T05:42:54.489Z,54.78
2019-05-13T05:45:28.074Z,57.00
2019-05-13T05:48:04.243Z,59.20
2019-05-13T05:50:37.995Z,58.44
2019-05-13T05:53:14.727Z,58.70
2019-05-13T05:55:51.812Z,59.81
2019-05-13T05:58:26.809Z,60.84
2019-05-13T06:01:02.562Z,61.48
2019-05-13T06:03:38.647Z,59.98
2019-05-13T06:06:13.910Z,56.70
2019-05-13T06:08:47.381Z,55.33
2019-05-13T06:11:22.283Z,52.84
2019-05-13T06:13:55.986Z,54.01
2019-05-13T06:16:31.877Z,52.85
2019-05-13T06:19:04.811Z,53.80
2019-05-13T06:21:38.415Z,53.66
2019-05-13T06:24:12.189Z,52.26
2019-05-13T06:26:46.111Z,53.35
2019-05-13T06:29:22.061Z,52.53
2019-05-13T06:31:54.889Z,51.74
2019-05-13T06:34:28.297Z,51.24
2019-05-13T06:37:02.178Z,50.04
2019-05-13T06:39:35.837Z,50.86
2019-05-13T06:42:11.470Z,49.02
2019-05-13T06:44:44.461Z,50.12
2019-05-13T06:47:17.880Z,50.93
2019-05-13T06:49:51.697Z,47.89
2019-05-13T06:52:25.201Z,49.55
2019-05-13T06:54:58.628Z,48.40
2019-05-13T06:57:32.298Z,47.45
2019-05-13T07:00:07.163Z,50.15
2019-05-13T07:02:42.696Z,47.19
2019-05-13T07:05:15.817Z,48.57
2019-05-13T07:07:51.318Z,46.14
2019-05-13T07:10:24.398Z,45.64
2019-05-13T07:12:57.803Z,44.77
2019-05-13T07:15:31.547Z,44.84
2019-05-13T07:18:05.201Z,46.74
2019-05-13T07:20:38.617Z,45.22
2019-05-13T07:23:12.439Z,43.33
2019-05-13T07:25:45.958Z,43.33
2019-05-13T07:28:21.705Z,42.42
2019-05-13T07:30:54.518Z,42.36
2019-05-13T07:33:27.931Z,45.47
2019-05-13T07:36:03.275Z,45.33
2019-05-13T07:38:37.167Z,43.00
2019-05-13T07:41:12.009Z,43.92
2019-05-13T07:43:46.410Z,43.12
2019-05-13T07:46:21.814Z,42.17
2019-05-13T07:48:54.925Z,45.31
2019-05-13T07:51:28.414Z,44.66
2019-05-13T07:54:02.366Z,46.85
2019-05-13T07:56:35.973Z,48.87
2019-05-13T07:59:12.016Z,48.67
2019-05-13T08:01:44.570Z,48.56
2019-05-13T08:04:22.753Z,49.13
2019-05-13T08:06:53.215Z,48.33
2019-05-13T08:09:26.692Z,48.00
2019-05-13T08:12:09.153Z,46.77
2019-05-13T08:14:35.438Z,47.49
2019-05-13T08:17:08.797Z,49.58
2019-05-13T08:19:42.216Z,48.60
2019-05-13T08:22:15.759Z,46.41
2019-05-13T08:24:51.887Z,48.12
2019-05-13T08:27:30.487Z,47.74
2019-05-13T08:30:01.692Z,46.49
2019-05-13T08:32:34.654Z,48.18
2019-05-13T08:35:09.421Z,47.50
2019-05-13T08:37:43.893Z,46.10
2019-05-13T08:40:20.079Z,45.54
2019-05-13T08:42:52.756Z,46.38
2019-05-13T08:45:26.191Z,47.30
2019-05-13T08:48:01.774Z,45.64
2019-05-13T08:50:34.797Z,44.77
2019-05-13T08:53:08.257Z,45.33
2019-05-13T08:55:42.545Z,44.94
2019-05-13T08:58:16.345Z,45.89
2019-05-13T09:00:52.942Z,44.72
2019-05-13T09:03:26.598Z,44.04
2019-05-13T09:06:02.535Z,44.59
2019-05-13T09:08:35.284Z,42.28
2019-05-13T09:11:08.708Z,43.43
2019-05-13T09:13:42.460Z,41.31
2019-05-13T09:16:15.970Z,42.83
2019-05-13T09:18:52.037Z,42.49
2019-05-13T09:21:24.505Z,42.65
2019-05-13T09:23:57.909Z,40.73
2019-05-13T09:26:31.738Z,40.22
2019-05-13T09:29:05.826Z,41.61
2019-05-13T09:31:41.402Z,39.50
2019-05-13T09:34:14.475Z,39.19
2019-05-13T09:36:47.897Z,39.97
2019-05-13T09:39:21.724Z,40.66
2019-05-13T09:41:55.221Z,38.12
2019-05-13T09:44:28.635Z,40.00
2019-05-13T09:47:02.792Z,39.06
2019-05-13T09:49:36.242Z,39.79
2019-05-13T09:52:11.912Z,40.24
2019-05-13T09:54:44.891Z,38.78
2019-05-13T09:57:18.309Z,38.62
2019-05-13T09:59:52.402Z,39.48
2019-05-13T10:02:25.931Z,37.45
2019-05-13T10:05:01.949Z,37.21
2019-05-13T10:07:34.508Z,37.45
2019-05-13T10:10:09.037Z,36.88
2019-05-13T10:12:42.751Z,37.37
2019-05-13T10:15:16.181Z,38.34
2019-05-13T10:17:52.531Z,38.21
2019-05-13T10:20:48.590Z,33.99
2019-05-13T10:23:22.538Z,34.67
2019-05-13T10:25:58.991Z,36.46
2019-05-13T10:28:33.038Z,37.10
2019-05-13T10:31:06.695Z,34.38
2019-05-13T10:33:42.042Z,30.42
2019-05-13T10:36:15.388Z,30.28
2019-05-13T10:38:49.043Z,30.67
2019-05-13T10:41:22.648Z,30.27
2019-05-13T10:43:56.048Z,31.68
2019-05-13T10:46:31.702Z,31.55
2019-05-13T10:49:04.785Z,31.68
2019-05-13T10:51:38.174Z,28.26
2019-05-13T10:54:11.751Z,28.53
2019-05-13T10:56:45.212Z,27.74
2019-05-13T10:59:18.692Z,27.38
2019-05-13T11:01:52.088Z,26.11
2019-05-13T11:04:25.574Z,26.94
2019-05-13T11:06:58.967Z,25.21
2019-05-13T11:09:32.794Z,23.94
2019-05-13T11:12:08.157Z,24.56
2019-05-13T11:14:42.215Z,24.22
2019-05-13T11:17:15.817Z,24.13
2019-05-13T11:19:49.298Z,25.45
2019-05-13T11:22:22.758Z,26.78
2019-05-13T11:24:56.125Z,26.00
2019-05-13T11:27:32.179Z,25.50
2019-05-13T11:30:07.708Z,24.46
2019-05-13T11:32:42.598Z,24.98
2019-05-13T11:35:16.457Z,25.31
2019-05-13T11:37:52.190Z,25.30
2019-05-13T11:40:25.052Z,24.67
2019-05-13T11:42:58.440Z,21.13
2019-05-13T11:45:31.930Z,20.35
2019-05-13T11:48:05.653Z,20.38
2019-05-13T11:50:42.185Z,20.84
2019-05-13T11:53:31.205Z,19.78
2019-05-13T11:55:52.285Z,20.46
2019-05-13T11:58:25.034Z,19.81
2019-05-13T12:01:02.578Z,21.45
2019-05-13T12:03:34.976Z,20.65
2019-05-13T12:06:08.402Z,20.60
2019-05-13T12:11:17.004Z,20.52
2019-05-13T12:13:52.844Z,18.91
2019-05-13T12:16:25.547Z,18.91
2019-05-13T12:18:58.998Z,19.77
2019-05-13T12:21:32.422Z,19.98
2019-05-13T12:24:10.570Z,20.25
2019-05-13T12:26:43.407Z,20.26
2019-05-13T12:29:19.122Z,20.62
2019-05-13T12:31:52.638Z,20.88
2019-05-13T12:34:26.304Z,20.52
2019-05-13T12:37:03.102Z,18.53
2019-05-13T12:39:34.885Z,19.21
2019-05-13T12:42:08.313Z,20.24
2019-05-13T12:44:59.791Z,20.47
2019-05-13T12:47:17.015Z,19.98
2019-05-13T12:49:50.491Z,20.60
2019-05-13T12:52:24.018Z,19.70
2019-05-13T12:54:57.856Z,18.57
2019-05-13T12:57:32.431Z,19.50
2019-05-13T13:00:07.160Z,19.82
2019-05-13T13:02:40.569Z,19.82
2019-05-13T13:05:20.034Z,20.01
2019-05-13T13:08:13.509Z,21.86
2019-05-13T13:10:24.695Z,20.77
2019-05-13T13:12:58.105Z,20.77
2019-05-13T13:15:38.410Z,20.32
2019-05-13T13:18:06.916Z,21.45
2019-05-13T13:20:42.122Z,20.62
2019-05-13T13:23:15.545Z,19.25
2019-05-13T13:28:24.387Z,20.49
2019-05-13T13:30:57.769Z,20.36
2019-05-13T13:33:34.193Z,19.42
2019-05-13T13:36:06.326Z,21.49
2019-05-13T13:38:43.678Z,20.40
2019-05-13T13:41:22.317Z,20.64
2019-05-13T13:43:53.845Z,20.21
2019-05-13T13:46:36.944Z,20.21
2019-05-13T13:49:00.725Z,20.32
2019-05-13T13:51:34.479Z,19.29
2019-05-13T13:54:08.147Z,20.06
2019-05-13T13:56:43.928Z,20.06
2019-05-13T13:59:16.768Z,20.75
2019-05-13T14:01:55.068Z,20.49
2019-05-13T14:04:25.359Z,19.81
2019-05-13T14:06:31.861Z,22.00
2019-05-13T14:06:55.936Z,20.88
2019-05-13T14:09:33.915Z,20.10
2019-05-13T14:12:07.314Z,20.01
2019-05-13T14:14:41.557Z,19.78
2019-05-13T14:17:15.074Z,19.58
2019-05-13T14:19:48.502Z,19.85
2019-05-13T14:22:22.007Z,21.26
2019-05-13T14:24:55.579Z,20.95
2019-05-13T14:27:31.321Z,22.02
2019-05-13T14:30:06.104Z,22.02
2019-05-13T14:32:41.768Z,20.97
2019-05-13T14:35:14.768Z,20.84
2019-05-13T14:37:48.166Z,20.62
2019-05-13T14:40:22.451Z,19.89
2019-05-13T14:42:56.075Z,21.20
2019-05-13T14:45:31.827Z,19.46
2019-05-13T14:48:05.115Z,20.03
2019-05-13T14:50:38.544Z,19.78
2019-05-13T14:53:11.934Z,21.42
2019-05-13T14:55:45.358Z,21.18
2019-05-13T14:58:21.726Z,20.00
2019-05-13T15:01:11.219Z,20.76
2019-05-13T15:03:29.166Z,21.37
2019-05-13T15:06:02.595Z,21.37
2019-05-13T15:08:35.981Z,20.89
2019-05-13T15:11:09.411Z,21.34
2019-05-13T15:13:42.839Z,21.75
2019-05-13T15:16:16.263Z,21.63
2019-05-13T15:18:52.227Z,21.84
2019-05-13T15:21:24.836Z,21.84
2019-05-13T15:23:58.224Z,22.23
2019-05-13T15:26:31.654Z,22.23
2019-05-13T15:29:05.320Z,22.29
2019-05-13T15:31:38.822Z,22.44
2019-05-13T15:34:12.269Z,22.38
2019-05-13T15:36:45.755Z,21.81
2019-05-13T15:39:19.181Z,21.59
2019-05-13T15:41:52.628Z,20.69
2019-05-13T15:44:26.090Z,20.19
2019-05-13T15:47:03.907Z,18.94
2019-05-13T15:49:34.711Z,20.86
2019-05-13T15:52:08.213Z,20.13
2019-05-13T15:54:41.686Z,19.88
2019-05-13T15:57:15.049Z,20.25
2019-05-13T15:59:48.524Z,20.95
2019-05-13T16:02:22.765Z,20.22
2019-05-13T16:05:01.255Z,19.85
2019-05-13T16:07:31.501Z,21.46
2019-05-13T16:10:06.971Z,21.14
2019-05-13T16:12:40.549Z,21.69
2019-05-13T16:15:15.800Z,22.20
2019-05-13T16:17:51.935Z,22.53
2019-05-13T16:20:24.479Z,21.86
2019-05-13T16:22:58.150Z,21.77
2019-05-13T16:25:32.575Z,21.92
2019-05-13T16:28:06.031Z,22.17
2019-05-13T16:30:41.911Z,21.82
2019-05-13T16:33:14.577Z,21.17
2019-05-13T16:35:47.992Z,21.26
2019-05-13T16:38:22.059Z,22.11
2019-05-13T16:40:55.511Z,21.83
2019-05-13T16:43:28.908Z,21.56
2019-05-13T16:46:02.369Z,21.87
2019-05-13T16:48:35.773Z,21.18
2019-05-13T16:51:12.025Z,21.81
2019-05-13T16:53:44.332Z,21.10
2019-05-13T16:56:26.905Z,21.44
2019-05-13T16:58:52.910Z,21.66
2019-05-13T17:01:26.432Z,21.86
2019-05-13T17:04:01.854Z,21.47
2019-05-13T17:06:35.053Z,21.47
2019-05-13T17:09:08.441Z,21.60
2019-05-13T17:11:41.885Z,21.45
2019-05-13T17:14:15.306Z,21.73
2019-05-13T17:16:48.711Z,22.16
2019-05-13T17:19:22.127Z,21.83
2019-05-13T17:21:55.601Z,21.63
2019-05-13T17:24:31.633Z,21.75
2019-05-13T17:27:04.317Z,21.30
2019-05-13T17:29:37.717Z,21.11
2019-05-13T17:32:11.576Z,21.52
2019-05-13T17:34:46.050Z,22.32
2019-05-13T17:37:22.076Z,22.20
2019-05-13T17:39:55.361Z,22.54
2019-05-13T17:42:28.815Z,23.33
2019-05-13T17:45:02.511Z,23.49
2019-05-13T17:47:35.952Z,23.62
2019-05-13T17:50:11.519Z,23.62
2019-05-13T17:52:44.632Z,24.54
2019-05-13T17:55:18.094Z,24.30
2019-05-13T17:57:51.631Z,24.87
2019-05-13T18:00:25.100Z,25.24
2019-05-13T18:02:58.588Z,25.78
2019-05-13T18:05:32.006Z,26.47
2019-05-13T18:08:05.423Z,26.75
2019-05-13T18:10:38.820Z,26.81
2019-05-13T18:13:12.746Z,27.21
2019-05-13T18:15:46.265Z,27.34
2019-05-13T18:18:21.517Z,27.73
2019-05-13T18:20:55.048Z,27.57
2019-05-13T18:23:28.555Z,27.15
2019-05-13T18:26:02.150Z,26.62
2019-05-13T18:28:35.606Z,27.71
2019-05-13T18:31:09.025Z,28.83
2019-05-13T18:33:42.563Z,28.83
2019-05-13T18:36:15.931Z,28.91
2019-05-13T18:38:49.426Z,28.91
2019-05-13T18:41:22.854Z,29.79
2019-05-13T18:43:56.384Z,29.58
2019-05-13T18:46:32.117Z,30.21
2019-05-13T18:49:04.966Z,30.18
2019-05-13T18:51:38.373Z,30.79
2019-05-13T18:54:12.194Z,29.56
2019-05-13T18:56:46.590Z,30.07
2019-05-13T18:59:21.427Z,30.03
2019-05-13T19:01:54.885Z,29.43
2019-05-13T19:04:28.345Z,29.49
2019-05-13T19:07:02.508Z,29.63
2019-05-13T19:09:36.081Z,30.53
2019-05-13T19:12:11.533Z,30.09
2019-05-13T19:14:44.649Z,30.23
2019-05-13T19:17:18.114Z,30.03
2019-05-13T19:19:51.574Z,30.52
2019-05-13T19:22:25.067Z,30.01
2019-05-13T19:24:58.513Z,30.62
2019-05-13T19:27:32.177Z,30.89
2019-05-13T19:30:07.308Z,31.02
2019-05-13T19:32:41.609Z,31.31
2019-05-13T19:35:15.417Z,32.11
2019-05-13T19:37:51.411Z,32.12
2019-05-13T19:40:24.007Z,32.93
2019-05-13T19:42:57.456Z,33.06
2019-05-13T19:45:32.249Z,33.35
2019-05-13T19:48:05.827Z,34.15
2019-05-13T19:50:41.406Z,33.91
2019-05-13T19:53:14.385Z,34.43
2019-05-13T19:55:47.833Z,34.31
2019-05-13T19:58:21.612Z,34.88
2019-05-13T20:00:55.245Z,35.08
2019-05-13T20:03:28.728Z,35.38
2019-05-13T20:06:02.440Z,35.71
2019-05-13T20:08:35.838Z,36.11
2019-05-13T20:11:11.568Z,36.88
2019-05-13T20:13:44.613Z,37.00
2019-05-13T20:16:18.106Z,38.72
2019-05-13T20:18:51.828Z,38.55
2019-05-13T20:21:25.334Z,38.72
2019-05-13T20:23:59.242Z,38.48
2019-05-13T20:26:35.626Z,39.08
2019-05-13T20:29:09.603Z,38.78
2019-05-13T20:31:42.989Z,38.86
2019-05-13T20:34:16.447Z,38.82
2019-05-13T20:36:51.589Z,38.98
2019-05-13T20:39:25.153Z,39.18
2019-05-13T20:42:01.385Z,39.42
2019-05-13T20:44:34.116Z,39.77
2019-05-13T20:47:07.547Z,39.93
2019-05-13T20:49:41.746Z,40.32
2019-05-13T20:52:15.646Z,40.62
2019-05-13T20:54:51.130Z,41.03
2019-05-13T20:57:26.042Z,41.27
2019-05-13T20:59:59.651Z,41.49
2019-05-13T21:02:34.963Z,41.72
2019-05-13T21:05:08.821Z,42.11
2019-05-13T21:07:42.239Z,42.42
2019-05-13T21:10:16.201Z,42.69
2019-05-13T21:12:51.392Z,42.82
2019-05-13T21:15:24.864Z,43.33
2019-05-13T21:17:58.282Z,43.80
2019-05-13T21:20:32.058Z,48.88
2019-05-13T21:23:05.700Z,46.29
2019-05-13T21:25:39.179Z,45.92
2019-05-13T21:28:12.597Z,44.98
2019-05-13T21:30:46.014Z,44.59
2019-05-13T21:33:21.930Z,46.74
2019-05-13T21:35:54.646Z,50.79
2019-05-13T21:38:28.073Z,52.24
2019-05-13T21:41:01.611Z,52.89
2019-05-13T21:43:35.106Z,53.05
2019-05-13T21:46:08.510Z,53.91
2019-05-13T21:48:41.926Z,53.33
2019-05-13T21:51:15.477Z,52.01
2019-05-13T21:53:48.892Z,50.36
2019-05-13T21:56:23.265Z,49.56
2019-05-13T21:58:56.785Z,49.15
2019-05-13T22:01:31.441Z,49.19
2019-05-13T22:04:05.251Z,48.14
2019-05-13T22:06:38.686Z,48.45
2019-05-13T22:09:12.960Z,47.88
2019-05-13T22:11:46.459Z,47.70
2019-05-13T22:14:19.950Z,47.63
2019-05-13T22:16:56.483Z,47.85
2019-05-13T22:19:28.487Z,47.04
2019-05-13T22:22:02.475Z,46.59
2019-05-13T22:24:36.071Z,46.75
2019-05-13T22:27:10.947Z,47.38
2019-05-13T22:29:44.601Z,47.61
2019-05-13T22:32:18.021Z,48.39
2019-05-13T22:34:51.431Z,48.33
2019-05-13T22:37:24.849Z,48.53
2019-05-13T22:39:58.239Z,48.36
2019-05-13T22:42:32.185Z,48.63
2019-05-13T22:45:06.561Z,48.85
2019-05-13T22:47:41.715Z,48.96
2019-05-13T22:50:15.604Z,48.93
2019-05-13T22:52:49.019Z,49.23
2019-05-13T22:55:22.427Z,48.98
2019-05-13T22:57:55.851Z,49.48
2019-05-13T23:00:31.573Z,49.16
2019-05-13T23:03:04.599Z,49.11
2019-05-13T23:05:37.979Z,48.84
2019-05-13T23:08:11.430Z,49.25
2019-05-13T23:10:44.777Z,48.55
2019-05-13T23:13:18.208Z,48.64
2019-05-13T23:15:51.778Z,48.47
2019-05-13T23:18:25.142Z,48.54
2019-05-13T23:20:58.556Z,49.15
2019-05-13T23:23:31.980Z,48.83
2019-05-13T23:26:05.371Z,48.62
2019-05-13T23:28:38.795Z,48.86
2019-05-13T23:31:12.465Z,48.80
2019-05-13T23:33:45.852Z,48.79
2019-05-13T23:36:21.105Z,49.03
2019-05-13T23:38:54.386Z,49.66
2019-05-13T23:41:27.783Z,50.26
2019-05-13T23:44:01.468Z,50.79
2019-05-13T23:46:35.147Z,51.28
2019-05-13T23:49:08.571Z,51.34
2019-05-13T23:51:42.025Z,51.65
2019-05-13T23:54:15.427Z,51.89
2019-05-13T23:56:48.823Z,51.33
2019-05-13T23:59:22.245Z,51.31
